KMKT/MKT METAR and TAF weather

Enter ICAO airport designator
Station Type Date Time Source
KMKT METAR 2020/11/28 18:56 UTC NOAA

KMKT 281856Z AUTO 21009KT 10SM CLR 10/M02 A2992 RMK AO2 SLP142 T01001017


Station Type Date Time Source
KMKT Decoded METAR 2020/11/28 18:56 UTC NOAA

Mankato, Mankato Regional Airport, MN, United States (KMKT) 44-13N 093-55W
Nov 28, 2020 - 01:56 PM EST / 2020.11.28 1856 UTC
Wind: from the SSW (210 degrees) at 10 MPH (9 KT):0
Visibility: 10 mile(s):0
Sky conditions: clear
Temperature: 50.0 F (10.0 C)
Dew Point: 28.9 F (-1.7 C)
Relative Humidity: 43%
Pressure (altimeter): 29.92 in. Hg (1013 hPa)
ob: KMKT 281856Z AUTO 21009KT 10SM CLR 10/M02 A2992 RMK AO2 SLP142 T01001017
cycle: 19

Station Type Date Time Source
KMKT TAF 2020/11/28 18:21 UTC NOAA

TAF KMKT 281720Z 2818/2918 21010KT P6SM SKC
FM290800 30010KT P6SM BKN150
FM291100 32017G28KT P6SM BKN025 OVC150
FM291600 33019G30KT P6SM BKN035

Example: see airport list